Terminal Aerodrome Forecast
Issued by NWS Twin Cities, MN

Home | Current Version | Previous Version | Graphics & Text | Print | Product List | Glossary On
Versions: 1 2 3 4 5 6 7 8 9 10 11 12 13 14 15 16 17 18 19 20 21 22 23 24 25 26 27 28 29
000
FTUS43 KMPX 042043 AAA
TAFMSP
TAF AMD
KMSP 042043Z 0421/0524 29012G19KT P6SM SCT045
     FM050100 30009KT P6SM FEW035
     FM050800 28006KT P6SM SKC
     FM052000 21010KT P6SM SKC=

USA.gov is the U.S. government's official web portal to all federal, state and local government web resources and services.